Unicom:                    122.8

AWOS:                  118.275

Elevation           1458’ MSL

TPA:                   2500’ MSL

06/24:         5003’ L   75’ W

PAPI:       06/Left     24/Left

(Operate lights on unicom freq.)

Traffic Pattern: Left

Beacon: Sunset to Sunrise

Windsock: yes, lighted

Segmented Circle: No

 

Cleveland Center: 126.72/291.65

FSS: Altoona

[Source: ADDS]
METAR
KFKL 210556Z AUTO 20006KT 3/4SM UP BR OVC003 01/00 A2984 RMK AO2 UPB24 SLP122 P0000 60028 T00060000 10006 21006 53006 FZRANO =
KFKL 210521Z 2106/2206 22007KT 2SM -DZ BR OVC003 FM210700 23007KT 4SM BR OVC005 FM210900 26008G19KT P6SM OVC008 FM211600 26011G21KT P6SM OVC012 FM211800 26012G21KT P6SM BKN022 FM212000 26011G20KT P6SM BKN250 FM220400 29006KT P6SM SCT100
TAF
KFKL 210521Z 2106/2206 22007KT 2SM -DZ BR OVC003 FM210700 23007KT 4SM BR OVC005 FM210900 26008G19KT P6SM OVC008 FM211600 26011G21KT P6SM OVC012 FM211800 26012G21KT P6SM BKN022 FM212000 26011G20KT P6SM BKN250 FM220400 29006KT P6SM SCT100 =
[Source: ADDS]
METAR
KDUJ 210553Z AUTO VRB03KT 4SM BR 01/M01 A2983 RMK AO2 SLP120 6//// I6261 T00061006 10006 21011 56010 $ =
KDUJ 210521Z 2106/2206 VRB03KT 2SM -DZ BR OVC005 WS020/23030KT FM210800 25008KT 4SM BR OVC006 FM211000 27011G22KT P6SM OVC008 FM211600 26013G23KT P6SM BKN015 FM211800 26014G24KT P6SM SCT250 FM220300 29008KT P6SM SCT100
TAF
KDUJ 210521Z 2106/2206 VRB03KT 2SM -DZ BR OVC005 WS020/23030KT FM210800 25008KT 4SM BR OVC006 FM211000 27011G22KT P6SM OVC008 FM211600 26013G23KT P6SM BKN015 FM211800 26014G24KT P6SM SCT250 FM220300 29008KT P6SM SCT100 =

Airport Information. 

Runway Length: 5003ft x 75ft

Runways 6/24

Traffic Pattern: Left

PAPI’s: 2 light PAPI on left of both 6/24

TPA: 2500 msl

Field Elevation: 1458 msl

Surface: Asphalt

Beacon: Operates Sunset-Sunrise

Pilot Controlled Lighting:  yes 122.8

 

Fuel:

Jet-A w/prist

100 LL

Center point fueling available upon request.

 

Unicom Frequency: 122.8

AWOS Frequency: 118.27  (814-227-2899)

 

Cleveland Center: 126.72 (440-774-0442)

 

GPS Approach Plates for 6/24 download here: http://www.airnav.com/airport/KAXQ

[Source: ADDS]
METAR
KFKL 210556Z AUTO 20006KT 3/4SM UP BR OVC003 01/00 A2984 RMK AO2 UPB24 SLP122 P0000 60028 T00060000 10006 21006 53006 FZRANO =
KFKL 210521Z 2106/2206 22007KT 2SM -DZ BR OVC003 FM210700 23007KT 4SM BR OVC005 FM210900 26008G19KT P6SM OVC008 FM211600 26011G21KT P6SM OVC012 FM211800 26012G21KT P6SM BKN022 FM212000 26011G20KT P6SM BKN250 FM220400 29006KT P6SM SCT100
TAF
KFKL 210521Z 2106/2206 22007KT 2SM -DZ BR OVC003 FM210700 23007KT 4SM BR OVC005 FM210900 26008G19KT P6SM OVC008 FM211600 26011G21KT P6SM OVC012 FM211800 26012G21KT P6SM BKN022 FM212000 26011G20KT P6SM BKN250 FM220400 29006KT P6SM SCT100 =
[Source: ADDS]
METAR
KDUJ 210553Z AUTO VRB03KT 4SM BR 01/M01 A2983 RMK AO2 SLP120 6//// I6261 T00061006 10006 21011 56010 $ =
KDUJ 210521Z 2106/2206 VRB03KT 2SM -DZ BR OVC005 WS020/23030KT FM210800 25008KT 4SM BR OVC006 FM211000 27011G22KT P6SM OVC008 FM211600 26013G23KT P6SM BKN015 FM211800 26014G24KT P6SM SCT250 FM220300 29008KT P6SM SCT100
TAF
KDUJ 210521Z 2106/2206 VRB03KT 2SM -DZ BR OVC005 WS020/23030KT FM210800 25008KT 4SM BR OVC006 FM211000 27011G22KT P6SM OVC008 FM211600 26013G23KT P6SM BKN015 FM211800 26014G24KT P6SM SCT250 FM220300 29008KT P6SM SCT100 =